Barcelona Aeropuerto

latitud = 41° 17' 34''N | longitud = 002° 04' 12''E
4 metros sobre el nivel del mar | datos mensuales

Fecha, hora, temperatura, viento dirección y velocidad, humedad y presión.

  • 21-01-2018 02:00:00 | 15.40°C | Noroeste |22.00 km/h | 58.00% | 1015.00 hPa
  • 21-01-2018 01:00:00 | 15.20°C | Noroeste |8.00 km/h | 59.00% | 1015.30 hPa
  • 21-01-2018 00:00:00 | 16.20°C | Noroeste |27.00 km/h | 54.00% | 1015.60 hPa
  • 20-01-2018 23:00:00 | 15.00°C | Este |5.00 km/h | 56.00% | 1015.70 hPa
  • 20-01-2018 22:00:00 | 15.60°C | Sudeste |4.00 km/h | 54.00% | 1015.70 hPa
  • 20-01-2018 21:00:00 | 16.30°C | Noroeste |20.00 km/h | 50.00% | 1015.70 hPa
  • 20-01-2018 20:00:00 | 15.90°C | Oeste |19.00 km/h | 49.00% | 1015.70 hPa
  • 20-01-2018 19:00:00 | 15.10°C | Oeste |21.00 km/h | 50.00% | 1016.10 hPa
  • 20-01-2018 18:00:00 | 14.50°C | Oeste |17.00 km/h | 55.00% | 1016.10 hPa
  • 20-01-2018 17:00:00 | 15.10°C | Oeste |26.00 km/h | 63.00% | 1016.20 hPa
  • 20-01-2018 16:00:00 | 15.80°C | Sudoeste |34.00 km/h | 53.00% | 1016.60 hPa
  • 20-01-2018 15:00:00 | 15.30°C | Oeste |32.00 km/h | 54.00% | 1016.80 hPa
  • 20-01-2018 14:00:00 | 14.80°C | Sudoeste |30.00 km/h | 56.00% | 1017.40 hPa
  • 20-01-2018 13:00:00 | 14.20°C | Sudoeste |15.00 km/h | 58.00% | 1019.20 hPa
  • 20-01-2018 12:00:00 | 12.40°C | Norte |4.00 km/h | 59.00% | 1020.80 hPa
  • 20-01-2018 11:00:00 | 10.10°C | Norte |14.00 km/h | 66.00% | 1021.40 hPa
  • 20-01-2018 10:00:00 | 8.20°C | Norte |14.00 km/h | 71.00% | 1021.40 hPa
  • 20-01-2018 09:00:00 | 6.10°C | Norte |21.00 km/h | 79.00% | 1021.80 hPa
  • 20-01-2018 08:00:00 | 6.20°C | Norte |21.00 km/h | 79.00% | 1021.40 hPa
  • 20-01-2018 07:00:00 | 6.40°C | Norte |19.00 km/h | 78.00% | 1021.20 hPa
  • 20-01-2018 06:00:00 | 6.90°C | Norte |18.00 km/h | 76.00% | 1021.10 hPa
  • 20-01-2018 05:00:00 | 7.40°C | Norte |17.00 km/h | 74.00% | 1020.60 hPa
  • 20-01-2018 04:00:00 | 7.80°C | Norte |15.00 km/h | 73.00% | 1020.80 hPa
  • 20-01-2018 03:00:00 | 8.00°C | Norte |17.00 km/h | 76.00% | 1020.90 hPa